Nearby METAR Reports

 

CYGK - Kingston Arpt (m, Ontario, Canada
Distance from station: SSW 54km
Updated: 22/11/2017 15:00
Overcast
Overcast
 Wind from NW
Wind: NW 11 km/h
Temperature: 1°C
Wind Chill: -2°C
Dew Point: -4°C
Humidity: 70%
Barometer: 1018.6 hPa
Clouds: Overcast
Visibility: 24 km
Cloud details: Mostly cloudy 701 m
Overcast 1372 m
2017/11/22 20:00 CYGK 222000Z 32006KT 15SM BKN023 OVC045 01/M04 A3008 RMK SC5SC3 SLP192
CXKE - Kemptville, Ontario, Canada
Distance from station: ENE 68km
Updated: 22/11/2017 15:00

 Wind from NW
Wind: NW 15 km/h
Temperature: -2°C
Wind Chill: -7°C
Dew Point: -8°C
Humidity: 64%
2017/11/22 20:00 CXKE 222000Z AUTO 31008KT M02/M08 RMK AO1 SOG 00 3013 SLP185 T10191078
 
KART - Watertown, New York, USA
Distance from station: SSE 81km
Updated: 22/11/2017 14:56
Overcast
Overcast
 Wind from NNW
Wind: NNW 17 km/h
Temperature: 1°C
Wind Chill: -3°C
Dew Point: -2°C
Humidity: 81%
Barometer: 1018.3 hPa
Clouds: Overcast
Visibility: 16 km
Cloud details: Overcast 1250 m
2017/11/22 19:56 KART 221956Z AUTO 34009KT 10SM OVC041 01/M02 A3007 RMK AO2 SLP189 T00061017
KGTB - Fort Drum/Wheele, New York, USA
Distance from station: SE 85km
Updated: 22/11/2017 15:06
Overcast
Overcast
 Wind from NNW
Wind: NNW 15 km/h
Temperature: -1°C
Wind Chill: -6°C
Dew Point: -4°C
Humidity: 80%
Barometer: 1017.6 hPa
Clouds: Overcast
Visibility: 16 km
Cloud details: Overcast 366 m
2017/11/22 20:06 KGTB 222006Z AUTO 34008KT 10SM OVC012 M01/M04 A3005 RMK AO2 SLP183 CHINO RWY03 $
 
CYOW - Ottawa Intl, Ontario, Canada
Distance from station: NE 90km
Updated: 22/11/2017 15:00
Few Clouds
Few Clouds
 Wind from NW
Wind: NW 20 km/h, Gust: 31 km/h
Temperature: -1°C
Wind Chill: -7°C
Dew Point: -8°C
Humidity: 59%
Barometer: 1018.3 hPa
Clouds: Few Clouds
Visibility: 24 km
Cloud details: Few Clouds 1585 m
2017/11/22 20:00 CYOW 222000Z 31011G17KT 15SM FEW052 M01/M08 A3007 RMK SC1 SLP189
CYTR - Trenton (can Mil, Ontario, Canada
Distance from station: SW 110km
Updated: 22/11/2017 15:00
Partly cloudy
Partly cloudy
 Wind from NW
Wind: NW 20 km/h, Gust: 33 km/h
Temperature: 0°C
Wind Chill: -6°C
Dew Point: -5°C
Humidity: 69%
Barometer: 1020 hPa
Clouds: Partly cloudy
Visibility: 24 km
Cloud details: Partly cloudy 732 m
2017/11/22 20:00 CYTR 222000Z 31011G18KT 15SM SCT024 00/M05 A3012 RMK SC4 SLP203
 
CWQP - Point Petre (mar, Ontario, Canada
Distance from station: SW 112km
Updated: 22/11/2017 15:00

 Wind from NNW
Wind: NNW 19 km/h, Gust: 28 km/h
Temperature: 1°C
Wind Chill: -4°C
Dew Point: -4°C
Humidity: 70%
2017/11/22 20:00 CWQP 222000Z AUTO 33010G15KT 01/M04 RMK AO1 SOG 01 1012 PK WND 32019/1923 SLP194 T00091039
CYND - Gatineau Airport, Quebec, Canada
Distance from station: NNE 113km
Updated: 22/11/2017 15:00
Partly cloudy
Partly cloudy
 Wind from NNW
Wind: NNW 15 km/h, Gust: 31 km/h
Temperature: -1°C
Wind Chill: -6°C
Dew Point: -8°C
Humidity: 59%
Barometer: 1018.3 hPa
Clouds: Partly cloudy
Visibility: 24 km
Cloud details: Few Clouds 914 m
Partly cloudy 1707 m
2017/11/22 20:00 CYND 222000Z 33008G17KT 15SM FEW030 SCT056 M01/M08 A3007 RMK SC1SC3 SLP187
 
KMSS - Massena, New York, USA
Distance from station: ENE 123km
Updated: 22/11/2017 15:11
Overcast
Overcast
 Wind from WNW
Wind: WNW 26 km/h
Temperature: -1°C
Wind Chill: -7°C
Dew Point: -4°C
Humidity: 80%
Barometer: 1018.3 hPa
Clouds: Overcast
Visibility: 16 km
Cloud details: Partly cloudy 640 m
Overcast 1524 m
2017/11/22 20:11 KMSS 222011Z AUTO 29014KT 10SM SCT021 OVC050 M01/M04 A3007 RMK AO2 T10061044
CWRK - Bancroft Autob, Ontario, Canada
Distance from station: WNW 126km
Updated: 22/11/2017 15:00

 Wind from NNW
Wind: NNW 11 km/h
Temperature: -5°C
Wind Chill: -9°C
Dew Point: -10°C
Humidity: 68%
2017/11/22 20:00 CWRK 222000Z AUTO 33006KT M05/M10 RMK AO1 SOG 01 3008 SLP205 T10491103
 
CXHF - High Falls Cs (a, Quebec, Canada
Distance from station: NNE 141km
Updated: 22/11/2017 15:00

 
Temperature: -4°C
Dew Point: -8°C
Humidity: 74%
2017/11/22 20:00 CXHF 222000Z AUTO M04/M08 RMK AO1 T10351077
KFZY - Fulton, New York, USA
Distance from station: S 147km
Updated: 22/11/2017 14:54
Overcast
Overcast
 Wind from W
Wind: W 20 km/h
Temperature: 2°C
Wind Chill: -3°C
Dew Point: -2°C
Humidity: 75%
Barometer: 1018.3 hPa
Clouds: Overcast
Visibility: 16 km
Cloud details: Overcast 1128 m
2017/11/22 19:54 KFZY 221954Z AUTO 28011KT 10SM OVC037 02/M02 A3007 RMK AO2 UPE05B40E53SNB11E21 SLP186 P0000 T00171017
 
CYWA - Petawawa, Ontario, Canada
Distance from station: NNW 160km
Updated: 22/11/2017 15:00
Mostly cloudy
Mostly cloudy
 Wind from NW
Wind: NW 20 km/h
Temperature: -5°C
Wind Chill: -12°C
Dew Point: -11°C
Humidity: 63%
Barometer: 1020.7 hPa
Clouds: Mostly cloudy
Visibility: 24 km
Cloud details: Mostly cloudy 914 m
2017/11/22 20:00 CYWA 222000Z 32011KT 15SM BKN030 M05/M11 A3014 RMK SC6 DA-2125FT SLP214
CWNC - Cobourg (mars), Ontario, Canada
Distance from station: WSW 164km
Updated: 22/11/2017 15:00

 Wind from NNW
Wind: NNW 17 km/h
Temperature: -1°C
Wind Chill: -6°C
Dew Point: -9°C
Humidity: 55%
2017/11/22 20:00 CWNC 222000Z AUTO 34009KT M01/M09 RMK AO1 SLP208 T10111086 53016
 
CYPQ - Peterborough Arp, Ontario, Canada
Distance from station: WSW 167km
Updated: 22/11/2017 15:04
Overcast
Overcast
 Wind from NNW
Wind: NNW 26 km/h, Gust: 35 km/h
Temperature: -4°C
Wind Chill: -11°C
Dew Point: -7°C
Humidity: 80%
Barometer: 1020.7 hPa
Clouds: Overcast
Visibility: 14 km
Cloud details: Overcast 701 m
2017/11/22 20:04 CYPQ 222004Z AUTO 33014G19KT 9SM OVC023 M04/M07 A3014 RMK SLP218
CWBZ - St Anicet, Quebec, Canada
Distance from station: ENE 172km
Updated: 22/11/2017 15:00

 Wind from WNW
Wind: WNW 17 km/h
Temperature: 0°C
Wind Chill: -4°C
Dew Point: -2°C
Humidity: 87%
2017/11/22 20:00 CWBZ 222000Z AUTO 29009KT M00/M02 RMK AO1 SLP170 T10041021 53014
 
KSLK - Saranac Lake, New York, USA
Distance from station: E 174km
Updated: 22/11/2017 15:07
Light snow, Mist, Overcast
Light snow, Mist, Overcast
 Wind from varies
Wind: varies 11 km/h
Temperature: -1°C
Wind Chill: -5°C
Dew Point: -2°C
Humidity: 93%
Barometer: 1013.5 hPa
Summary: Light snow, Mist
Clouds: Overcast
Visibility: 10 km
Cloud details: Mostly cloudy 274 m
Mostly cloudy 579 m
Overcast 884 m
2017/11/22 20:07 KSLK 222007Z AUTO VRB06KT 6SM -SN BR BKN009 BKN019 OVC029 M01/M02 A2993 RMK AO2 P0000 T10111017
KSYR - Syracuse, New York, USA
Distance from station: S 174km
Updated: 22/11/2017 15:10
Overcast
Overcast
 Wind from W
Wind: W 37 km/h, Gust: 46 km/h
Temperature: 1°C
Wind Chill: -6°C
Dew Point: -2°C
Humidity: 81%
Barometer: 1018.6 hPa
Clouds: Overcast
Visibility: 14 km
Cloud details: Mostly cloudy 762 m
Overcast 1372 m
2017/11/22 20:10 KSYR 222010Z 27020G25KT 9SM BKN025 OVC045 01/M02 A3008 RMK AO2 T00111022
 
CTNK - Algonquin Park, Ontario, Canada
Distance from station: WNW 177km
Updated: 22/11/2017 15:00

 Wind from NNW
Wind: NNW 4 km/h
Temperature: -7°C
Dew Point: -12°C
Humidity: 68%
2017/11/22 20:00 CTNK 222000Z AUTO 34002KT M07/M12 RMK AO1 SOG 09 3004 SLP207 T10671124
KRME - Rome/Griffiss Af, New York, USA
Distance from station: SSE 179km
Updated: 22/11/2017 15:14
Light snow, Mist, Overcast
Light snow, Mist, Overcast
 Wind from W
Wind: W 15 km/h
Temperature: 1°C
Wind Chill: -3°C
Dew Point: 0°C
Humidity: 93%
Barometer: 1017.6 hPa
Summary: Light snow, Mist
Clouds: Overcast
Visibility: 5 km
Cloud details: Mostly cloudy 396 m
Mostly cloudy 701 m
Overcast 1036 m
2017/11/22 20:14 KRME 222014Z 28008KT 3SM -SN BR BKN013 BKN023 OVC034 01/00 A3005 RMK AO2 P0001 T00110000